Time;durP1;ratioP1;P1;durP2;ratioP2;P2;SDS_P1;SDS_P2;PMS_P1;PMS_P2;Temp;Humidity;BMP_temperature;BMP_pressure;BME280_temperature;BME280_humidity;BME280_pressure;Samples;Min_cycle;Max_cycle;Signal;HPM_P1;HPM_P2
2022/04/22 00:00:45;;;;;;;12.43;5.50;;;;;;;10.86;59.64;98728.56;4953819;28;20109;-68
2022/04/22 00:03:10;;;;;;;10.77;4.80;;;;;;;10.82;59.58;98729.72;4953774;28;20047;-68
2022/04/22 00:05:36;;;;;;;12.93;6.25;;;;;;;10.77;59.74;98739.72;4953950;28;20039;-68
2022/04/22 00:08:02;;;;;;;8.98;5.97;;;;;;;10.75;60.08;98724.00;4953904;28;20043;-67
2022/04/22 00:10:27;;;;;;;9.52;4.75;;;;;;;10.74;59.63;98730.22;4953656;28;20088;-67
2022/04/22 00:12:53;;;;;;;8.88;4.35;;;;;;;10.70;60.19;98731.38;4953157;28;20079;-68
2022/04/22 00:15:20;;;;;;;9.35;5.32;;;;;;;10.63;60.45;98735.38;4954004;28;20063;-67
2022/04/22 00:17:46;;;;;;;11.00;4.95;;;;;;;10.59;60.56;98728.63;4953744;28;20035;-67
2022/04/22 00:20:13;;;;;;;12.95;6.15;;;;;;;10.59;60.71;98726.00;4953810;28;20039;-67
2022/04/22 00:22:42;;;;;;;10.77;5.60;;;;;;;10.52;60.96;98718.47;4953995;28;20410;-67
2022/04/22 00:25:09;;;;;;;8.13;5.55;;;;;;;10.48;60.73;98724.91;4954941;28;20043;-68
2022/04/22 00:27:35;;;;;;;10.32;5.57;;;;;;;10.48;61.42;98724.91;4954597;28;20036;-68
2022/04/22 00:30:01;;;;;;;10.15;5.18;;;;;;;10.48;61.01;98726.69;4953476;28;20035;-67
2022/04/22 00:32:26;;;;;;;10.82;5.88;;;;;;;10.49;61.33;98733.66;4953433;28;20058;-68
2022/04/22 00:34:51;;;;;;;9.23;5.97;;;;;;;10.44;61.17;98728.69;4954509;28;20049;-69
2022/04/22 00:37:17;;;;;;;8.57;5.95;;;;;;;10.42;61.51;98724.47;4953722;28;20031;-68
2022/04/22 00:39:42;;;;;;;9.30;5.88;;;;;;;10.41;61.32;98723.63;4953608;28;20039;-66
2022/04/22 00:42:10;;;;;;;9.20;5.18;;;;;;;10.35;61.46;98723.16;4952678;28;20126;-67
2022/04/22 00:44:35;;;;;;;6.93;4.95;;;;;;;10.33;61.72;98725.91;4953393;28;20122;-67
2022/04/22 00:47:00;;;;;;;10.07;6.25;;;;;;;10.30;61.55;98715.56;4953483;28;20032;-67
2022/04/22 00:49:26;;;;;;;6.85;5.82;;;;;;;10.25;62.21;98715.00;4953403;28;20039;-68
2022/04/22 00:51:51;;;;;;;8.50;5.13;;;;;;;10.18;62.38;98716.34;4952775;28;20046;-68
2022/04/22 00:54:16;;;;;;;6.85;5.63;;;;;;;10.15;61.81;98711.28;4952937;28;20043;-69
2022/04/22 00:56:42;;;;;;;15.82;6.90;;;;;;;10.04;62.54;98711.94;4953164;28;20053;-68
2022/04/22 00:59:08;;;;;;;6.65;5.40;;;;;;;10.02;62.42;98709.44;4953296;28;20408;-69
2022/04/22 01:01:34;;;;;;;8.60;5.85;;;;;;;9.98;62.53;98707.94;4946862;28;20101;-68
2022/04/22 01:12:13;;;;;;;8.40;6.57;;;;;;;9.80;63.53;98688.06;4952128;28;20043;-68
2022/04/22 01:14:39;;;;;;;8.57;5.10;;;;;;;9.82;63.59;98694.91;4953153;28;20031;-67
2022/04/22 01:17:05;;;;;;;9.50;6.45;;;;;;;9.79;63.94;98689.81;4952727;28;20380;-68
2022/04/22 01:19:31;;;;;;;9.50;6.65;;;;;;;9.78;63.90;98684.66;4952820;28;20043;-68
2022/04/22 01:21:57;;;;;;;9.95;6.75;;;;;;;9.74;64.30;98681.38;4951520;28;20042;-69
2022/04/22 01:24:22;;;;;;;9.20;6.47;;;;;;;9.71;63.79;98683.38;4951100;28;20035;-68
2022/04/22 01:26:50;;;;;;;11.80;7.65;;;;;;;9.68;64.18;98692.31;4951984;28;20035;-69
2022/04/22 01:29:15;;;;;;;11.40;6.63;;;;;;;9.68;63.97;98690.50;4952436;28;20514;-68
2022/04/22 01:31:43;;;;;;;8.63;6.00;;;;;;;9.69;63.91;98691.34;4951921;28;20055;-68
2022/04/22 01:34:08;;;;;;;10.57;5.88;;;;;;;9.65;64.09;98687.25;4952874;28;20140;-69
2022/04/22 01:36:33;;;;;;;10.43;6.53;;;;;;;9.64;64.22;98698.69;4952643;28;20118;-69
2022/04/22 01:38:59;;;;;;;11.48;6.75;;;;;;;9.64;64.04;98682.91;4952601;28;20039;-68
2022/04/22 01:41:24;;;;;;;11.90;6.82;;;;;;;9.60;64.35;98690.16;4951754;28;20472;-68
2022/04/22 01:43:50;;;;;;;9.88;5.95;;;;;;;9.58;64.50;98691.19;4952217;28;20041;-68
2022/04/22 01:46:16;;;;;;;10.55;7.35;;;;;;;9.54;64.75;98689.69;4952309;28;20062;-68
2022/04/22 01:48:41;;;;;;;7.88;6.00;;;;;;;9.54;64.93;98687.91;4952098;28;20118;-68
2022/04/22 01:51:06;;;;;;;12.85;6.50;;;;;;;9.51;64.53;98688.09;4952419;28;20034;-70
2022/04/22 01:53:32;;;;;;;9.73;5.72;;;;;;;9.47;64.49;98683.94;4951896;28;20039;-69
2022/04/22 01:55:57;;;;;;;12.65;5.97;;;;;;;9.45;64.67;98685.81;4952407;28;20035;-68
2022/04/22 01:58:23;;;;;;;11.45;6.07;;;;;;;9.42;65.53;98680.78;4952256;28;20070;-68
2022/04/22 02:00:48;;;;;;;6.38;5.50;;;;;;;9.37;65.24;98688.94;4955337;28;20609;-67
2022/04/22 02:03:13;;;;;;;9.80;6.15;;;;;;;9.35;65.36;98687.34;4954360;28;20049;-68
2022/04/22 02:05:40;;;;;;;9.80;6.93;;;;;;;9.28;65.36;98683.41;4951438;28;20480;-69
2022/04/22 02:08:06;;;;;;;11.07;6.90;;;;;;;9.17;66.63;98687.53;4952291;28;20046;-67
2022/04/22 02:10:31;;;;;;;9.10;7.15;;;;;;;9.11;66.82;98680.03;4951667;28;20050;-68
2022/04/22 02:12:56;;;;;;;9.32;6.45;;;;;;;9.13;66.72;98677.31;4951234;28;20043;-68
2022/04/22 02:15:22;;;;;;;9.90;6.88;;;;;;;9.12;67.23;98680.88;4951754;28;20188;-68
2022/04/22 02:17:47;;;;;;;8.88;6.18;;;;;;;9.12;66.93;98676.47;4951808;28;20046;-68
2022/04/22 02:20:12;;;;;;;11.98;6.65;;;;;;;9.11;66.85;98671.31;4951706;28;20396;-68
2022/04/22 02:22:38;;;;;;;9.73;7.05;;;;;;;9.08;66.82;98671.47;4951761;28;20039;-67
2022/04/22 02:25:03;;;;;;;9.13;7.25;;;;;;;9.04;66.55;98673.47;4952090;28;20035;-68
2022/04/22 02:30:13;;;;;;;8.68;6.43;;;;;;;9.00;67.30;98671.94;4951197;28;20538;-68
2022/04/22 02:32:38;;;;;;;9.13;6.75;;;;;;;9.04;66.65;98670.84;4951194;28;20039;-69
2022/04/22 02:35:04;;;;;;;13.13;9.10;;;;;;;9.06;66.88;98662.84;4953845;28;20038;-68
2022/04/22 02:37:29;;;;;;;10.05;7.38;;;;;;;9.08;67.44;98671.47;4953696;28;20127;-68
2022/04/22 02:39:54;;;;;;;13.50;7.13;;;;;;;9.09;66.85;98663.50;4952231;28;20035;-68
2022/04/22 02:47:48;;;;;;;7.85;6.82;;;;;;;9.14;66.82;98666.69;4952060;28;20086;-70
2022/04/22 02:50:13;;;;;;;8.90;7.03;;;;;;;9.14;66.31;98655.34;4951995;28;20039;-68
2022/04/22 02:52:39;;;;;;;10.25;6.63;;;;;;;9.11;66.50;98661.63;4952471;28;20431;-70
2022/04/22 02:55:04;;;;;;;12.38;7.55;;;;;;;9.11;66.78;98660.81;4951981;28;20058;-70
2022/04/22 02:57:29;;;;;;;11.13;8.07;;;;;;;9.08;67.40;98661.84;4951578;28;20491;-69
2022/04/22 02:59:55;;;;;;;11.50;7.57;;;;;;;9.06;66.84;98661.06;4951612;28;20027;-68
2022/04/22 03:02:20;;;;;;;13.10;8.68;;;;;;;9.08;67.28;98655.69;4950594;28;20412;-70
2022/04/22 03:04:47;;;;;;;8.65;7.22;;;;;;;9.01;67.49;98660.50;4951432;28;20484;-69
2022/04/22 03:07:13;;;;;;;12.25;7.80;;;;;;;9.01;67.34;98658.72;4951346;28;20037;-69
2022/04/22 03:09:38;;;;;;;10.50;7.47;;;;;;;8.96;67.56;98652.91;4952348;28;20122;-70
2022/04/22 03:12:04;;;;;;;11.68;7.85;;;;;;;8.93;68.17;98649.59;4950747;28;20454;-69
2022/04/22 03:14:29;;;;;;;11.70;8.38;;;;;;;8.89;67.41;98648.94;4952859;28;20043;-66
2022/04/22 03:16:54;;;;;;;12.70;7.68;;;;;;;8.87;67.66;98642.94;4953776;28;20035;-69
2022/04/22 03:19:20;;;;;;;11.93;7.78;;;;;;;8.85;68.19;98647.44;4952114;28;20062;-67
2022/04/22 03:21:45;;;;;;;10.93;7.95;;;;;;;8.81;68.54;98644.16;4952670;28;20424;-67
2022/04/22 03:24:11;;;;;;;10.85;7.25;;;;;;;8.84;68.45;98650.19;4953924;28;20097;-67
2022/04/22 03:26:36;;;;;;;11.35;7.90;;;;;;;8.82;68.60;98642.38;4952930;28;20031;-68
2022/04/22 03:29:02;;;;;;;13.90;8.70;;;;;;;8.84;68.31;98644.91;4953148;28;20039;-69
2022/04/22 03:31:27;;;;;;;10.60;7.70;;;;;;;8.84;68.61;98648.38;4952370;28;20047;-68
2022/04/22 03:33:53;;;;;;;13.50;9.90;;;;;;;8.84;67.82;98644.91;4953094;28;20112;-69
2022/04/22 03:36:18;;;;;;;11.15;7.30;;;;;;;8.81;68.81;98643.28;4952991;28;20038;-68
2022/04/22 03:38:43;;;;;;;9.63;7.45;;;;;;;8.82;67.93;98637.97;4951319;28;20563;-67
2022/04/22 03:41:10;;;;;;;11.48;8.35;;;;;;;8.82;68.58;98642.38;4950699;28;20499;-67
2022/04/22 03:43:35;;;;;;;9.68;7.97;;;;;;;8.79;68.53;98637.31;4951228;28;20487;-68
2022/04/22 03:46:01;;;;;;;11.82;9.07;;;;;;;8.77;68.76;98647.06;4951002;28;20047;-67
2022/04/22 03:48:26;;;;;;;13.75;10.23;;;;;;;8.68;69.05;98640.56;4951555;28;20046;-68
2022/04/22 03:50:52;;;;;;;11.70;9.32;;;;;;;8.59;69.67;98641.13;4954297;28;20027;-68
2022/04/22 03:53:17;;;;;;;14.02;9.48;;;;;;;8.53;69.62;98644.13;4952742;28;20035;-68
2022/04/22 03:55:44;;;;;;;11.65;8.93;;;;;;;8.49;69.92;98634.72;4954535;28;20102;-68
2022/04/22 03:58:10;;;;;;;11.52;8.77;;;;;;;8.42;69.88;98629.00;4954873;28;20431;-66
2022/04/22 04:00:51;;;;;;;13.25;9.90;;;;;;;8.34;70.31;98634.69;4953964;28;20031;-69
2022/04/22 04:03:19;;;;;;;11.02;8.57;;;;;;;8.29;71.09;98635.84;4953323;28;20396;-69
2022/04/22 04:05:48;;;;;;;12.65;9.30;;;;;;;8.25;70.89;98635.19;4954166;28;20115;-69
2022/04/22 04:08:14;;;;;;;17.92;9.15;;;;;;;8.22;70.82;98635.38;4955008;28;20459;-67
2022/04/22 04:16:07;;;;;;;13.95;10.15;;;;;;;8.14;70.80;98641.06;4954008;28;20039;-69
2022/04/22 04:18:37;;;;;;;17.58;9.60;;;;;;;8.08;71.52;98630.94;4947310;28;20928;-67
2022/04/22 04:23:49;;;;;;;;;;;;;;;8.13;71.20;98639.38;4954496;28;20047;-71
2022/04/22 04:26:16;;;;;;;10.88;8.65;;;;;;;8.16;70.92;98630.47;4954101;28;19914;-68
2022/04/22 04:28:43;;;;;;;17.23;10.45;;;;;;;8.06;71.93;98624.91;4954176;28;20109;-68
2022/04/22 04:31:11;;;;;;;15.30;11.30;;;;;;;7.97;71.61;98630.69;4952952;28;20043;-68
2022/04/22 04:33:37;;;;;;;16.63;11.32;;;;;;;7.88;71.67;98631.22;4953767;28;20039;-68
2022/04/22 04:36:03;;;;;;;15.00;11.23;;;;;;;7.79;71.75;98622.09;4953457;28;20039;-68
2022/04/22 04:38:28;;;;;;;15.05;10.73;;;;;;;7.68;71.88;98624.50;4953928;28;20032;-68
2022/04/22 04:40:54;;;;;;;13.75;9.50;;;;;;;7.59;72.14;98625.84;4953687;28;20487;-67
2022/04/22 04:43:20;;;;;;;17.52;10.27;;;;;;;7.52;72.08;98625.31;4953801;28;20035;-67
2022/04/22 04:45:46;;;;;;;12.20;10.18;;;;;;;7.50;72.82;98627.16;4955064;28;20043;-69
2022/04/22 04:48:12;;;;;;;12.20;8.95;;;;;;;7.49;72.57;98625.50;4953844;28;20031;-69
2022/04/22 04:50:39;;;;;;;14.15;9.48;;;;;;;7.50;72.45;98627.16;4953798;28;20046;-68
2022/04/22 04:53:04;;;;;;;12.02;8.65;;;;;;;7.54;72.29;98622.63;4954140;28;20059;-68
2022/04/22 04:55:30;;;;;;;11.10;8.98;;;;;;;7.50;72.41;98627.16;4955565;28;20043;-67
2022/04/22 04:57:55;;;;;;;14.63;9.65;;;;;;;7.55;72.59;98628.72;4955977;28;20035;-68
2022/04/22 05:00:21;;;;;;;11.00;8.75;;;;;;;7.67;73.32;98638.50;4954112;28;20119;-68
2022/04/22 05:02:47;;;;;;;15.57;9.90;;;;;;;7.77;72.67;98629.19;4953880;28;20496;-66
2022/04/22 05:05:12;;;;;;;11.63;9.30;;;;;;;7.79;72.46;98632.59;4954013;28;20047;-68
2022/04/22 05:07:53;;;;;;;12.25;9.15;;;;;;;7.84;72.59;98629.69;4954258;28;20042;-66
2022/04/22 05:10:19;;;;;;;17.38;9.32;;;;;;;7.95;72.51;98622.06;4950810;28;20042;-68
2022/04/22 05:12:46;;;;;;;15.88;10.13;;;;;;;8.08;72.69;98622.22;4952916;28;20099;-65
2022/04/22 05:15:11;;;;;;;13.25;8.57;;;;;;;8.15;72.07;98620.94;4951119;28;20113;-67
2022/04/22 05:17:41;;;;;;;12.20;9.00;;;;;;;8.22;71.71;98624.88;4954202;28;20555;-68
2022/04/22 05:20:09;;;;;;;15.30;10.07;;;;;;;8.24;71.67;98628.25;4953089;28;20035;-68
2022/04/22 05:22:35;;;;;;;18.35;10.55;;;;;;;8.23;71.84;98621.31;4953206;28;20047;-66
2022/04/22 05:25:00;;;;;;;13.77;10.00;;;;;;;8.27;71.43;98621.97;4954476;28;20039;-67
2022/04/22 05:27:26;;;;;;;22.75;11.00;;;;;;;8.28;71.65;98623.69;4955191;28;20041;-66
2022/04/22 05:32:38;;;;;;;16.52;10.95;;;;;;;8.34;71.21;98620.69;4952302;28;20121;-67
2022/04/22 05:35:08;;;;;;;16.95;11.82;;;;;;;8.34;71.99;98618.91;4953042;28;20407;-67
2022/04/22 05:37:46;;;;;;;18.05;10.32;;;;;;;8.43;72.19;98616.72;4952374;28;20039;-67
2022/04/22 05:40:13;;;;;;;16.30;9.98;;;;;;;8.50;71.10;98620.66;4949020;28;20170;-67
2022/04/22 05:42:39;;;;;;;15.60;9.98;;;;;;;8.58;72.00;98621.03;4952506;28;20035;-67
2022/04/22 05:45:10;;;;;;;11.23;9.00;;;;;;;8.68;71.49;98619.53;4951986;28;20031;-67
2022/04/22 05:47:36;;;;;;;15.38;11.30;;;;;;;8.77;71.39;98612.91;4952612;28;20031;-67
2022/04/22 05:50:02;;;;;;;18.20;10.45;;;;;;;8.84;70.84;98616.84;4940545;28;20594;-66
2022/04/22 05:52:28;;;;;;;13.38;10.75;;;;;;;8.94;70.20;98612.72;4944620;28;20043;-67
2022/04/22 05:54:54;;;;;;;30.75;11.30;;;;;;;9.05;70.91;98612.03;4947597;28;20526;-68
2022/04/22 05:57:19;;;;;;;15.95;10.93;;;;;;;9.13;70.77;98620.31;4949578;28;20058;-67
2022/04/22 05:59:45;;;;;;;17.05;11.30;;;;;;;9.26;71.04;98619.56;4949506;28;20031;-65
2022/04/22 06:02:11;;;;;;;25.80;13.00;;;;;;;9.33;69.70;98620.84;4948196;28;20043;-66
2022/04/22 06:04:36;;;;;;;17.15;11.98;;;;;;;9.30;69.73;98616.63;4950001;28;20043;-67
2022/04/22 06:07:01;;;;;;;18.85;11.10;;;;;;;9.39;70.63;98618.66;4933013;28;20067;-65
2022/04/22 06:12:12;;;;;;;17.02;12.75;;;;;;;9.57;68.98;98607.91;4947509;28;20049;-68
2022/04/22 06:14:38;;;;;;;26.00;12.85;;;;;;;9.60;68.17;98610.38;4948027;28;20783;-68
2022/04/22 06:17:04;;;;;;;23.02;12.85;;;;;;;9.65;68.13;98610.94;4947974;28;20073;-68
2022/04/22 06:19:29;;;;;;;21.67;11.50;;;;;;;9.74;68.42;98612.09;4947578;28;20043;-68
2022/04/22 06:21:54;;;;;;;24.25;12.40;;;;;;;9.77;67.99;98617.16;4946861;28;20031;-67
2022/04/22 06:24:19;;;;;;;22.95;12.18;;;;;;;9.78;68.32;98619.72;4946142;28;20090;-68
2022/04/22 06:26:45;;;;;;;22.55;12.50;;;;;;;9.79;68.29;98616.13;4947279;28;20118;-69
2022/04/22 06:29:10;;;;;;;17.10;11.70;;;;;;;9.73;68.19;98613.91;4948778;28;20043;-66
2022/04/22 06:31:36;;;;;;;21.48;11.02;;;;;;;9.73;68.70;98607.78;4945810;28;20031;-69
2022/04/22 06:34:02;;;;;;;15.13;11.73;;;;;;;9.77;69.20;98606.63;4946760;28;20047;-68
2022/04/22 06:36:29;;;;;;;20.73;10.85;;;;;;;9.83;68.34;98607.09;4947149;28;20046;-69
2022/04/22 06:38:58;;;;;;;21.48;13.27;;;;;;;9.91;68.89;98611.00;4947239;28;20090;-67
2022/04/22 06:46:53;;;;;;;23.65;13.48;;;;;;;10.10;68.52;98600.97;4946059;28;20527;-67
2022/04/22 06:49:19;;;;;;;18.65;12.88;;;;;;;10.31;67.59;98601.34;4937740;28;20044;-68
2022/04/22 06:51:44;;;;;;;14.85;11.65;;;;;;;10.68;66.96;98596.19;4929986;28;20784;-67
2022/04/22 06:54:10;;;;;;;14.77;12.05;;;;;;;10.75;65.05;98594.84;4947319;28;20050;-70
2022/04/22 06:56:39;;;;;;;19.67;11.98;;;;;;;11.05;64.32;98602.41;4946890;28;20039;-68
2022/04/22 06:59:04;;;;;;;22.50;11.23;;;;;;;11.27;64.12;98591.19;4946708;28;20043;-67
2022/04/22 07:01:30;;;;;;;24.83;13.15;;;;;;;11.51;62.70;98593.00;4945961;28;20039;-68
2022/04/22 07:03:57;;;;;;;23.25;12.60;;;;;;;11.78;61.73;98592.78;4946703;28;20040;-68
2022/04/22 07:06:22;;;;;;;21.50;12.23;;;;;;;12.17;60.83;98588.19;4946998;28;20498;-69
2022/04/22 07:08:49;;;;;;;16.20;12.13;;;;;;;12.43;59.88;98591.53;4947260;28;20039;-69
2022/04/22 07:11:21;;;;;;;17.92;12.32;;;;;;;12.84;59.13;98584.84;4945506;28;20091;-70
2022/04/22 07:13:47;;;;;;;18.00;12.75;;;;;;;13.26;57.55;98583.25;4947017;28;20039;-69
2022/04/22 07:16:16;;;;;;;18.50;13.15;;;;;;;13.44;56.33;98582.81;4946542;28;20047;-70
2022/04/22 07:18:42;;;;;;;16.60;12.80;;;;;;;14.07;55.13;98578.47;4946957;28;20039;-67
2022/04/22 07:21:07;;;;;;;19.25;14.00;;;;;;;14.13;54.37;98572.69;4945454;28;20043;-69
2022/04/22 07:23:33;;;;;;;16.75;12.93;;;;;;;14.13;54.17;98583.28;4947448;28;20039;-69
2022/04/22 07:25:59;;;;;;;28.20;13.38;;;;;;;14.25;52.96;98575.28;4965656;28;20094;-71
2022/04/22 07:28:27;;;;;;;20.52;14.70;;;;;;;13.96;52.71;98579.38;4949696;28;20043;-70
2022/04/22 07:30:53;;;;;;;17.77;13.55;;;;;;;14.07;52.56;98565.25;4949677;28;20385;-68
2022/04/22 07:33:19;;;;;;;25.90;13.95;;;;;;;13.84;52.52;98575.09;4949819;28;20039;-67
2022/04/22 07:35:44;;;;;;;17.75;11.80;;;;;;;14.14;51.38;98563.75;4948870;28;20035;-68
2022/04/22 07:38:12;;;;;;;22.30;15.18;;;;;;;13.75;52.96;98566.09;4950549;28;20682;-68
2022/04/22 07:40:40;;;;;;;20.15;12.98;;;;;;;13.99;52.49;98573.00;4949297;28;20415;-68
2022/04/22 07:48:35;;;;;;;18.67;13.00;;;;;;;14.13;51.40;98563.91;4930720;28;20121;-67
2022/04/22 07:51:01;;;;;;;16.55;13.10;;;;;;;14.65;50.12;98571.94;4928154;28;20091;-67
2022/04/22 07:53:26;;;;;;;16.98;12.50;;;;;;;14.66;49.69;98568.31;4930530;28;20043;-68
2022/04/22 07:55:52;;;;;;;18.02;11.93;;;;;;;14.37;50.63;98564.50;4930479;28;20546;-68
2022/04/22 07:58:17;;;;;;;16.58;11.00;;;;;;;14.14;50.87;98570.88;4945137;28;20046;-67
2022/04/22 08:00:45;;;;;;;18.83;12.80;;;;;;;13.68;52.01;98578.19;4947427;28;20039;-68
2022/04/22 08:03:11;;;;;;;16.70;12.43;;;;;;;13.52;52.69;98575.06;4947952;28;20043;-68
2022/04/22 08:05:40;;;;;;;23.15;12.70;;;;;;;13.37;53.10;98571.84;4947710;28;20046;-69
2022/04/22 08:08:06;;;;;;;22.13;13.00;;;;;;;13.27;53.26;98574.41;4949611;28;20135;-68
2022/04/22 08:10:33;;;;;;;20.52;12.45;;;;;;;13.07;53.70;98561.88;4949208;28;20051;-69
2022/04/22 08:12:58;;;;;;;27.65;13.68;;;;;;;12.98;53.41;98573.19;4946751;28;20744;-70
2022/04/22 08:15:23;;;;;;;18.40;13.40;;;;;;;12.99;53.78;98572.22;4948962;28;20070;-67
2022/04/22 08:17:49;;;;;;;19.10;13.35;;;;;;;13.08;53.54;98566.19;4949246;28;20042;-69
2022/04/22 08:20:14;;;;;;;20.45;14.10;;;;;;;13.21;53.61;98566.06;4949123;28;20035;-68
2022/04/22 08:22:40;;;;;;;20.38;14.13;;;;;;;13.07;54.21;98567.19;4948942;28;20047;-69
2022/04/22 08:25:06;;;;;;;18.08;13.15;;;;;;;13.04;53.70;98573.56;4947432;28;20038;-69
2022/04/22 08:27:32;;;;;;;15.18;11.45;;;;;;;13.23;54.02;98577.38;4949867;28;20135;-70
2022/04/22 08:29:59;;;;;;;18.55;12.95;;;;;;;13.50;53.24;98569.91;4949661;28;20094;-69
2022/04/22 08:32:24;;;;;;;17.90;13.50;;;;;;;13.50;53.23;98564.59;4947496;28;20039;-69
2022/04/22 08:34:51;;;;;;;25.67;12.48;;;;;;;13.64;52.51;98558.19;4949193;28;20046;-69
2022/04/22 08:37:17;;;;;;;25.00;13.50;;;;;;;13.60;52.92;98555.91;4949006;28;20039;-68
2022/04/22 08:39:42;;;;;;;22.27;12.98;;;;;;;13.58;52.25;98566.63;4948527;28;20085;-69
2022/04/22 08:42:11;;;;;;;16.45;12.95;;;;;;;13.59;51.94;98570.13;4948172;28;20035;-67
2022/04/22 08:44:36;;;;;;;17.60;11.23;;;;;;;13.51;52.72;98568.94;4949135;28;20042;-68
2022/04/22 08:49:58;;;;;;;15.52;11.32;;;;;;;13.67;52.19;98568.53;4948213;28;20049;-68
2022/04/22 08:52:29;;;;;;;16.30;11.20;;;;;;;14.54;49.96;98547.16;4947797;28;20396;-68
2022/04/22 08:54:55;;;;;;;17.40;12.52;;;;;;;14.50;49.93;98540.41;4953250;28;20126;-68
2022/04/22 08:57:21;;;;;;;19.13;10.60;;;;;;;15.11;48.86;98536.97;4954099;28;20039;-68
2022/04/22 08:59:46;;;;;;;15.32;12.35;;;;;;;15.02;48.71;98541.25;4949048;28;20130;-68
2022/04/22 09:02:19;;;;;;;14.57;11.30;;;;;;;14.80;48.67;98542.28;4948746;28;20043;-68
2022/04/22 09:04:46;;;;;;;14.40;11.73;;;;;;;14.61;49.34;98547.47;4948159;28;20149;-68
2022/04/22 09:07:13;;;;;;;24.20;12.23;;;;;;;14.45;49.73;98544.41;4948804;28;20039;-68
2022/04/22 09:09:42;;;;;;;15.43;10.55;;;;;;;14.37;50.20;98539.78;4948514;28;20043;-68
2022/04/22 09:12:13;;;;;;;17.08;11.38;;;;;;;13.98;50.94;98546.59;4946851;28;20101;-67
2022/04/22 09:14:45;;;;;;;14.15;10.43;;;;;;;13.94;51.01;98544.22;4949426;28;20596;-68
2022/04/22 09:17:16;;;;;;;20.33;11.13;;;;;;;13.79;51.44;98542.00;4949227;28;20411;-69
2022/04/22 09:19:45;;;;;;;15.50;11.60;;;;;;;13.59;52.97;98533.06;4947118;28;20507;-68
2022/04/22 09:22:11;;;;;;;12.85;10.48;;;;;;;13.59;53.12;98539.19;4929233;28;20048;-68
2022/04/22 09:24:51;;;;;;;14.98;11.63;;;;;;;13.57;53.07;98540.28;4929379;28;20041;-68
2022/04/22 09:27:17;;;;;;;15.52;11.18;;;;;;;13.45;53.26;98531.53;4929126;28;20087;-69
2022/04/22 09:29:55;;;;;;;13.63;10.77;;;;;;;13.45;53.09;98535.00;4929587;28;20044;-68
2022/04/22 09:32:22;;;;;;;16.45;11.73;;;;;;;13.48;53.54;98533.91;4928132;28;20031;-69
2022/04/22 09:34:48;;;;;;;21.40;12.13;;;;;;;13.46;53.25;98531.41;4928557;28;20051;-68
2022/04/22 09:42:52;;;;;;;17.60;11.50;;;;;;;13.47;53.40;98533.09;4929477;28;20126;-68
2022/04/22 09:45:18;;;;;;;20.83;11.57;;;;;;;13.48;52.98;98532.09;4946059;28;20487;-67
2022/04/22 09:47:43;;;;;;;15.88;10.63;;;;;;;13.40;52.71;98531.06;4948195;28;20480;-67
2022/04/22 09:50:11;;;;;;;15.00;10.68;;;;;;;13.44;52.73;98525.41;4948177;28;20519;-65
2022/04/22 09:52:46;;;;;;;17.38;13.55;;;;;;;13.43;52.51;98517.56;4947294;28;20503;-68
2022/04/22 09:55:16;;;;;;;15.05;11.30;;;;;;;13.48;52.50;98516.22;4948210;28;20585;-69
2022/04/22 09:57:55;;;;;;;16.73;11.50;;;;;;;13.32;53.38;98519.28;4948436;28;20126;-69
2022/04/22 10:00:22;;;;;;;16.77;11.77;;;;;;;13.38;53.74;98514.47;4950317;28;20039;-70
2022/04/22 10:02:52;;;;;;;17.38;11.63;;;;;;;13.35;53.02;98509.41;4952681;28;20118;-70
2022/04/22 10:05:36;;;;;;;16.50;10.80;;;;;;;13.48;52.84;98515.38;4953484;28;20035;-69
2022/04/22 10:08:03;;;;;;;13.85;10.90;;;;;;;13.58;52.41;98507.53;4954263;28;20042;-68
2022/04/22 10:10:36;;;;;;;25.83;11.82;;;;;;;13.57;52.19;98505.84;4953677;28;20039;-68
2022/04/22 10:13:03;;;;;;;13.40;10.00;;;;;;;13.48;52.31;98513.56;4953019;28;20056;-69
2022/04/22 10:15:35;;;;;;;14.07;10.93;;;;;;;13.39;51.41;98510.81;4952282;28;20066;-68
2022/04/22 10:18:00;;;;;;;13.45;11.05;;;;;;;13.28;51.31;98509.06;4952447;28;20051;-69
2022/04/22 10:20:27;;;;;;;10.68;8.77;;;;;;;13.41;51.84;98504.44;4951879;28;20440;-68
2022/04/22 10:22:53;;;;;;;12.32;8.85;;;;;;;13.60;51.29;98497.66;4950350;28;20110;-69
2022/04/22 10:25:19;;;;;;;13.10;9.98;;;;;;;13.59;50.10;98490.69;4952231;28;20038;-69
2022/04/22 10:27:46;;;;;;;12.95;9.27;;;;;;;13.69;50.60;98500.38;4952300;28;20035;-67
2022/04/22 10:30:13;;;;;;;14.15;10.05;;;;;;;13.63;50.93;98494.75;4952077;28;20454;-70
2022/04/22 10:32:40;;;;;;;13.15;9.20;;;;;;;13.62;50.34;98495.72;4951752;28;20042;-68
2022/04/22 10:35:07;;;;;;;12.82;9.95;;;;;;;13.68;50.25;98495.22;4951718;28;20542;-67
2022/04/22 10:37:34;;;;;;;11.27;8.68;;;;;;;13.76;50.16;98492.78;4952395;28;20038;-68
2022/04/22 10:40:00;;;;;;;12.57;8.40;;;;;;;13.93;49.66;98499.28;4951632;28;20142;-68
2022/04/22 10:42:37;;;;;;;15.98;9.27;;;;;;;14.18;48.42;98488.31;4951787;28;20037;-69
2022/04/22 10:47:52;;;;;;;9.93;8.25;;;;;;;15.78;45.23;98476.13;4951759;28;20038;-69
2022/04/22 10:50:42;;;;;;;12.43;10.18;;;;;;;15.64;44.92;98478.19;4951844;28;20126;-68
2022/04/22 10:53:24;;;;;;;16.77;10.38;;;;;;;15.57;45.71;98478.88;4951663;28;20451;-68
2022/04/22 10:55:50;;;;;;;14.38;9.02;;;;;;;15.73;45.50;98475.72;4952047;28;20039;-68
2022/04/22 10:58:15;;;;;;;15.63;9.82;;;;;;;15.81;45.02;98468.69;4950806;28;20045;-69
2022/04/22 11:00:42;;;;;;;15.52;10.52;;;;;;;15.77;44.96;98469.94;4954914;28;20115;-69
2022/04/22 11:03:34;;;;;;;11.75;9.38;;;;;;;15.86;44.84;98471.78;4953525;28;20043;-69
2022/04/22 11:06:01;;;;;;;11.10;7.85;;;;;;;15.89;44.26;98468.00;4952531;28;20679;-69
2022/04/22 11:08:29;;;;;;;15.20;10.23;;;;;;;15.71;44.47;98469.69;4954886;28;20043;-68
2022/04/22 11:10:54;;;;;;;12.15;10.50;;;;;;;15.36;45.03;98463.91;4954937;28;20119;-68
2022/04/22 11:13:52;;;;;;;19.83;11.10;;;;;;;15.33;45.44;98466.81;4954375;28;20121;-68
2022/04/22 11:16:22;;;;;;;16.02;9.68;;;;;;;15.87;44.12;98440.72;4954683;28;20054;-68
2022/04/22 11:19:18;;;;;;;10.32;9.20;;;;;;;16.44;43.45;98456.66;4935600;28;20055;-68
2022/04/22 11:21:52;;;;;;;14.40;9.93;;;;;;;16.17;43.14;98450.31;4927050;28;20550;-68
2022/04/22 11:24:21;;;;;;;13.48;9.77;;;;;;;16.56;42.98;98434.22;4933704;28;20091;-69
2022/04/22 11:26:47;;;;;;;14.02;9.25;;;;;;;16.51;43.07;98431.16;4951168;28;20039;-69
2022/04/22 11:29:14;;;;;;;10.57;9.30;;;;;;;16.28;43.42;98441.31;4937252;28;20031;-67
2022/04/22 11:31:40;;;;;;;12.95;9.07;;;;;;;16.33;42.97;98449.72;4927714;28;20040;-68
2022/04/22 11:34:15;;;;;;;12.38;10.15;;;;;;;16.27;42.87;98437.84;4924591;28;20047;-69
2022/04/22 11:36:46;;;;;;;14.07;10.73;;;;;;;16.35;42.90;98431.78;4946706;28;20109;-69
2022/04/22 11:39:17;;;;;;;13.52;9.60;;;;;;;16.40;42.43;98442.81;4935569;28;20090;-69
2022/04/22 11:41:58;;;;;;;15.23;8.63;;;;;;;16.47;42.61;98433.28;4926783;28;20040;-69
2022/04/22 11:44:24;;;;;;;12.27;9.32;;;;;;;16.42;41.95;98422.25;4934932;28;20055;-68
2022/04/22 11:46:51;;;;;;;8.20;7.10;;;;;;;16.62;41.96;98424.81;4935187;28;20582;-68
2022/04/22 11:49:16;;;;;;;12.60;8.80;;;;;;;16.58;41.44;98418.94;4935487;28;20094;-68
2022/04/22 11:51:42;;;;;;;11.35;8.85;;;;;;;16.58;41.44;98420.78;4935321;28;20443;-68
2022/04/22 11:54:07;;;;;;;12.35;9.32;;;;;;;16.34;42.00;98419.47;4935500;28;20032;-68
2022/04/22 11:56:35;;;;;;;26.40;9.07;;;;;;;16.52;41.34;98411.56;4935400;28;20039;-67
2022/04/22 11:59:01;;;;;;;11.77;8.88;;;;;;;16.72;40.88;98407.81;4934946;28;20055;-68
2022/04/22 12:08:00;;;;;;;12.65;8.65;;;;;;;17.18;40.04;98402.53;4946954;28;20160;-68
2022/04/22 12:10:00;;;;;;;9.25;7.28;;;;;;;17.01;40.09;98419.31;4953674;28;20031;-68
2022/04/22 12:12:31;;;;;;;14.68;9.23;;;;;;;16.78;40.03;98403.75;4953975;28;20039;-68
2022/04/22 12:15:04;;;;;;;16.15;8.23;;;;;;;16.62;40.19;98398.22;4954270;28;20035;-69
2022/04/22 12:17:30;;;;;;;12.52;8.63;;;;;;;16.68;40.54;98397.59;4954312;28;20039;-67
2022/04/22 12:19:55;;;;;;;13.23;9.32;;;;;;;16.69;40.42;98402.78;4953570;28;20042;-68
2022/04/22 12:22:22;;;;;;;11.77;8.38;;;;;;;16.91;40.10;98395.41;4953360;28;20062;-69
2022/04/22 12:25:26;;;;;;;30.58;10.00;;;;;;;16.67;40.17;98402.09;4954091;28;20101;-67